Time;durP1;ratioP1;P1;durP2;ratioP2;P2;SDS_P1;SDS_P2;PMS_P1;PMS_P2;Temp;Humidity;BMP_temperature;BMP_pressure;BME280_temperature;BME280_humidity;BME280_pressure;Samples;Min_cycle;Max_cycle;Signal;HPM_P1;HPM_P2
2022/04/25 00:00:30;;;;;;;33.28;19.58;;;7.60;99.90;;;;;;4972704;28;20046;-75
2022/04/25 00:02:58;;;;;;;34.88;19.95;;;7.60;99.90;;;;;;4993259;28;20079;-75
2022/04/25 00:05:25;;;;;;;33.15;19.48;;;7.60;99.90;;;;;;5011546;28;20712;-75
2022/04/25 00:07:52;;;;;;;37.95;21.80;;;7.60;99.90;;;;;;5024156;28;20057;-75
2022/04/25 00:10:21;;;;;;;44.20;24.58;;;7.50;99.90;;;;;;5021674;28;20131;-75
2022/04/25 00:12:48;;;;;;;41.88;23.85;;;7.50;99.90;;;;;;5004732;28;20495;-75
2022/04/25 00:15:15;;;;;;;41.35;22.52;;;7.40;99.90;;;;;;4993392;28;20069;-74
2022/04/25 00:17:42;;;;;;;39.35;21.75;;;7.40;99.90;;;;;;5006835;28;20105;-74
2022/04/25 00:20:10;;;;;;;34.92;21.75;;;7.40;99.90;;;;;;5022027;28;20285;-74
2022/04/25 00:22:37;;;;;;;40.90;23.65;;;7.40;99.90;;;;;;5022029;28;20050;-75
2022/04/25 00:25:04;;;;;;;49.50;26.70;;;7.40;99.90;;;;;;5014692;28;20044;-76
2022/04/25 00:27:31;;;;;;;43.63;25.75;;;7.40;99.90;;;;;;5010471;28;20104;-75
2022/04/25 00:29:59;;;;;;;42.65;24.80;;;7.40;99.90;;;;;;5004917;28;20057;-75
2022/04/25 00:32:26;;;;;;;37.47;23.23;;;7.40;99.90;;;;;;5007393;28;20046;-76
2022/04/25 00:34:53;;;;;;;42.33;23.48;;;7.30;99.90;;;;;;5023843;28;20070;-75
2022/04/25 00:37:20;;;;;;;31.23;19.13;;;7.30;99.90;;;;;;5021047;28;20060;-75
2022/04/25 00:39:47;;;;;;;41.63;22.75;;;7.20;99.90;;;;;;5009792;28;20508;-75
2022/04/25 00:42:15;;;;;;;35.58;22.08;;;7.10;99.90;;;;;;5014341;28;20296;-75
2022/04/25 00:44:42;;;;;;;42.33;24.30;;;7.10;99.90;;;;;;5006203;28;20707;-76
2022/04/25 00:47:10;;;;;;;40.92;22.95;;;7.10;99.90;;;;;;5041938;28;20049;-75
2022/04/25 00:49:37;;;;;;;33.17;20.27;;;7.10;99.90;;;;;;5017763;28;20053;-75
2022/04/25 00:52:05;;;;;;;34.30;21.88;;;7.10;99.90;;;;;;5004530;28;20114;-75
2022/04/25 00:54:36;;;;;;;38.25;21.58;;;7.10;99.90;;;;;;5023946;28;20104;-76
2022/04/25 00:57:04;;;;;;;39.38;22.42;;;7.00;99.90;;;;;;5009209;28;20045;-75
2022/04/25 00:59:35;;;;;;;39.58;22.58;;;7.00;99.90;;;;;;4990128;28;20112;-76
2022/04/25 01:02:02;;;;;;;35.63;22.08;;;7.00;99.90;;;;;;4989794;28;20058;-75
2022/04/25 01:04:30;;;;;;;39.13;22.10;;;7.10;99.90;;;;;;5014071;28;20052;-75
2022/04/25 01:06:58;;;;;;;33.25;20.67;;;7.10;99.90;;;;;;5021553;28;20160;-74
2022/04/25 01:09:25;;;;;;;34.33;20.73;;;7.10;99.90;;;;;;5042346;28;20073;-75
2022/04/25 01:11:52;;;;;;;35.13;21.10;;;7.10;99.90;;;;;;5014151;28;20037;-75
2022/04/25 01:14:20;;;;;;;35.33;20.42;;;7.10;99.90;;;;;;5019197;28;20052;-74
2022/04/25 01:16:48;;;;;;;33.22;20.52;;;7.10;99.90;;;;;;5004083;28;20049;-75
2022/04/25 01:19:15;;;;;;;33.55;21.45;;;6.90;99.90;;;;;;4988410;28;20614;-75
2022/04/25 01:21:44;;;;;;;34.13;22.23;;;6.80;99.90;;;;;;4989289;28;20050;-75
2022/04/25 01:27:15;;;;;;;36.58;21.08;;;6.70;99.90;;;;;;5012509;28;20046;-74
2022/04/25 01:29:48;;;;;;;42.78;22.15;;;6.60;99.90;;;;;;5022699;28;20049;-75
2022/04/25 01:32:15;;;;;;;34.72;21.67;;;6.50;99.90;;;;;;5022331;28;20049;-76
2022/04/25 01:34:42;;;;;;;33.55;20.63;;;6.60;99.90;;;;;;5011455;28;20088;-76
2022/04/25 01:37:18;;;;;;;35.45;22.58;;;6.60;99.90;;;;;;5022378;28;20049;-74
2022/04/25 01:39:51;;;;;;;32.45;19.00;;;6.60;99.90;;;;;;5040535;28;20111;-75
2022/04/25 01:42:20;;;;;;;32.38;19.13;;;6.60;99.90;;;;;;5009680;28;20602;-74
2022/04/25 01:44:47;;;;;;;38.78;20.55;;;6.60;99.90;;;;;;4988156;28;20050;-74
2022/04/25 01:47:14;;;;;;;26.90;18.30;;;6.50;99.90;;;;;;5005336;28;20046;-74
2022/04/25 01:49:41;;;;;;;33.53;20.85;;;6.40;99.90;;;;;;5004389;28;20058;-75
2022/04/25 01:52:20;;;;;;;37.92;21.73;;;6.50;99.90;;;;;;5003636;28;20057;-76
2022/04/25 01:54:49;;;;;;;38.65;23.02;;;6.40;99.90;;;;;;5007264;28;20046;-74
2022/04/25 01:57:16;;;;;;;34.15;21.85;;;6.50;99.90;;;;;;5010389;28;20047;-75
2022/04/25 01:59:44;;;;;;;42.47;24.40;;;6.60;99.90;;;;;;5024468;28;20057;-76
2022/04/25 02:02:12;;;;;;;43.83;24.88;;;6.50;99.90;;;;;;5024624;28;20783;-74
2022/04/25 02:04:41;;;;;;;35.90;21.92;;;6.60;99.90;;;;;;5031836;28;20951;-75
2022/04/25 02:07:09;;;;;;;36.55;22.48;;;6.50;99.90;;;;;;5024319;28;20049;-75
2022/04/25 02:09:37;;;;;;;41.50;23.08;;;6.50;99.90;;;;;;5017965;28;20096;-75
2022/04/25 02:12:05;;;;;;;36.05;21.95;;;6.40;99.90;;;;;;5029196;28;20559;-75
2022/04/25 02:14:32;;;;;;;39.17;22.45;;;6.40;99.90;;;;;;5024403;28;20880;-74
2022/04/25 02:17:00;;;;;;;38.28;24.02;;;6.30;99.90;;;;;;5027065;28;20049;-75
2022/04/25 02:19:28;;;;;;;51.55;25.67;;;6.30;99.90;;;;;;5025018;28;20755;-74
2022/04/25 02:21:56;;;;;;;44.78;22.63;;;6.40;99.90;;;;;;5024040;28;20049;-75
2022/04/25 02:24:23;;;;;;;38.22;22.25;;;6.40;99.90;;;;;;5021067;28;20110;-75
2022/04/25 02:26:50;;;;;;;33.65;21.00;;;6.30;99.90;;;;;;5016306;28;20500;-75
2022/04/25 02:29:20;;;;;;;37.92;20.92;;;6.40;99.90;;;;;;5012165;28;20274;-75
2022/04/25 02:31:47;;;;;;;29.70;19.25;;;6.30;99.90;;;;;;5021326;28;20064;-75
2022/04/25 02:34:14;;;;;;;28.80;16.55;;;6.30;99.90;;;;;;5025732;28;20045;-75
2022/04/25 02:36:41;;;;;;;26.38;17.00;;;6.10;99.90;;;;;;5016416;28;20053;-75
2022/04/25 02:39:08;;;;;;;26.48;17.58;;;6.10;99.90;;;;;;5007556;28;20436;-75
2022/04/25 02:41:35;;;;;;;26.75;16.35;;;6.10;99.90;;;;;;5029215;28;20091;-75
2022/04/25 02:44:02;;;;;;;25.70;16.65;;;6.10;99.90;;;;;;4991608;28;20118;-75
2022/04/25 02:46:28;;;;;;;28.83;18.17;;;6.20;99.90;;;;;;5021040;28;20074;-75
2022/04/25 02:48:56;;;;;;;37.90;21.40;;;6.20;99.90;;;;;;5004294;28;20646;-75
2022/04/25 02:51:23;;;;;;;37.53;22.15;;;6.30;99.90;;;;;;4988328;28;20052;-75
2022/04/25 02:53:50;;;;;;;41.33;24.70;;;6.40;99.90;;;;;;5022308;28;20804;-75
2022/04/25 02:56:18;;;;;;;49.90;29.80;;;6.50;99.90;;;;;;5016604;28;20045;-75
2022/04/25 02:58:45;;;;;;;51.65;30.42;;;6.60;99.90;;;;;;5032632;23;20049;-76
2022/04/25 03:01:12;;;;;;;48.50;28.30;;;6.60;99.90;;;;;;4990977;28;20132;-75
2022/04/25 03:03:39;;;;;;;46.05;28.05;;;6.70;99.90;;;;;;4988073;28;20121;-75
2022/04/25 03:06:11;;;;;;;48.95;28.08;;;6.60;99.90;;;;;;4988939;28;20105;-75
2022/04/25 03:08:39;;;;;;;51.28;29.70;;;6.60;99.90;;;;;;4989178;28;20058;-76
2022/04/25 03:11:10;;;;;;;51.22;29.08;;;6.70;99.90;;;;;;5011364;28;20064;-75
2022/04/25 03:13:38;;;;;;;50.22;30.48;;;6.70;99.90;;;;;;5020032;28;20099;-75
2022/04/25 03:16:06;;;;;;;66.53;34.90;;;6.70;99.90;;;;;;5020891;28;20049;-75
2022/04/25 03:18:33;;;;;;;54.33;30.30;;;6.80;99.90;;;;;;5021265;28;20089;-75
2022/04/25 03:21:01;;;;;;;51.60;29.65;;;6.80;99.90;;;;;;5020784;28;20042;-75
2022/04/25 03:23:28;;;;;;;48.00;28.20;;;6.80;99.90;;;;;;5021578;28;20050;-77
2022/04/25 03:25:55;;;;;;;54.88;29.58;;;6.70;99.90;;;;;;4999063;28;20045;-75
2022/04/25 03:28:22;;;;;;;50.13;26.88;;;6.70;99.90;;;;;;5003412;28;20077;-75
2022/04/25 03:30:49;;;;;;;46.22;29.80;;;6.70;99.90;;;;;;5003764;28;20653;-78
2022/04/25 03:33:16;;;;;;;56.10;29.98;;;6.70;99.90;;;;;;5018777;28;20034;-76
2022/04/25 03:35:49;;;;;;;56.53;31.33;;;6.80;99.90;;;;;;5013128;28;20046;-75
2022/04/25 03:38:18;;;;;;;61.15;32.25;;;6.80;99.90;;;;;;5005201;28;20802;-75
2022/04/25 03:40:45;;;;;;;55.35;32.33;;;6.80;99.90;;;;;;5009174;28;20276;-76
2022/04/25 03:43:15;;;;;;;59.03;33.40;;;6.80;99.90;;;;;;5007601;28;20591;-76
2022/04/25 03:45:42;;;;;;;59.78;33.15;;;6.90;99.90;;;;;;4986465;28;20488;-76
2022/04/25 03:48:09;;;;;;;55.75;33.90;;;6.90;99.90;;;;;;5001199;28;20109;-77
2022/04/25 03:50:36;;;;;;;69.07;35.97;;;6.80;99.90;;;;;;4986721;28;20120;-77
2022/04/25 03:53:11;;;;;;;51.08;31.30;;;6.90;99.90;;;;;;5019854;28;20089;-76
2022/04/25 03:58:23;;;;;;;;;;;6.90;99.90;;;;;;5003067;28;20100;-75
2022/04/25 04:00:50;;;;;;;58.67;31.95;;;7.00;99.90;;;;;;4968378;28;20029;-76
2022/04/25 04:03:18;;;;;;;56.88;33.28;;;7.00;99.90;;;;;;5001385;28;20092;-76
2022/04/25 04:05:50;;;;;;;64.10;34.00;;;7.00;99.90;;;;;;5008873;28;20053;-77
2022/04/25 04:08:17;;;;;;;54.30;33.08;;;7.00;99.90;;;;;;5004980;28;20058;-76
2022/04/25 04:10:44;;;;;;;64.72;33.38;;;6.90;99.90;;;;;;5017030;28;20050;-77
2022/04/25 04:13:11;;;;;;;62.53;32.58;;;7.00;99.90;;;;;;5016017;28;20045;-77
2022/04/25 04:15:39;;;;;;;72.93;35.42;;;7.00;99.90;;;;;;5021252;28;20045;-76
2022/04/25 04:18:06;;;;;;;67.40;34.17;;;6.90;99.90;;;;;;5021439;28;20077;-76
2022/04/25 04:20:33;;;;;;;70.85;35.92;;;7.00;99.90;;;;;;5003811;28;20042;-76
2022/04/25 04:23:01;;;;;;;68.38;36.15;;;6.90;99.90;;;;;;5003529;28;20065;-76
2022/04/25 04:25:28;;;;;;;65.57;36.20;;;7.00;99.90;;;;;;5015548;28;20130;-76
2022/04/25 04:27:54;;;;;;;62.97;34.35;;;7.00;99.90;;;;;;5012875;28;20154;-76
2022/04/25 04:30:21;;;;;;;58.13;33.97;;;7.00;99.90;;;;;;5003674;28;20054;-77
2022/04/25 04:32:48;;;;;;;68.45;34.58;;;7.00;99.90;;;;;;5004028;28;20065;-76
2022/04/25 04:36:17;;;;;;;65.80;34.60;;;7.00;99.90;;;;;;5010730;28;20042;-77
2022/04/25 04:38:05;;;;;;;72.38;36.25;;;7.00;99.90;;;;;;5019893;28;20042;-76
2022/04/25 04:40:32;;;;;;;76.68;37.70;;;7.20;99.90;;;;;;5020540;28;20148;-77
2022/04/25 04:42:59;;;;;;;70.82;36.63;;;7.20;99.90;;;;;;5005477;28;20065;-76
2022/04/25 04:45:27;;;;;;;81.35;38.33;;;7.30;99.90;;;;;;5003858;28;20053;-77
2022/04/25 04:47:54;;;;;;;83.25;39.63;;;7.30;99.90;;;;;;5004135;28;20054;-77
2022/04/25 04:50:21;;;;;;;76.03;39.00;;;7.30;99.90;;;;;;5020440;28;20309;-76
2022/04/25 04:52:53;;;;;;;77.93;38.72;;;7.30;99.90;;;;;;5020320;28;20116;-76
2022/04/25 04:55:20;;;;;;;78.50;39.10;;;7.40;99.90;;;;;;4998375;28;20046;-76
2022/04/25 04:57:47;;;;;;;77.72;39.83;;;7.40;99.90;;;;;;4997993;28;20030;-77
2022/04/25 05:00:16;;;;;;;75.63;37.15;;;7.60;99.90;;;;;;4995396;28;20508;-77
2022/04/25 05:02:44;;;;;;;64.28;35.00;;;7.60;99.90;;;;;;5002473;28;20104;-76
2022/04/25 05:05:14;;;;;;;64.03;33.70;;;7.60;99.90;;;;;;5019685;28;20096;-76
2022/04/25 05:07:41;;;;;;;68.90;36.47;;;7.70;99.90;;;;;;5002462;28;20054;-76
2022/04/25 05:10:09;;;;;;;64.88;35.58;;;7.60;99.90;;;;;;5002774;28;20097;-76
2022/04/25 05:12:46;;;;;;;61.17;34.67;;;7.60;99.90;;;;;;5006529;28;20046;-76
2022/04/25 05:15:13;;;;;;;67.35;36.75;;;7.70;99.90;;;;;;5012146;28;20103;-77
2022/04/25 05:17:41;;;;;;;67.20;36.33;;;7.60;99.90;;;;;;5018109;28;20057;-77
2022/04/25 05:20:11;;;;;;;63.70;34.63;;;7.60;99.90;;;;;;5006208;28;20539;-76
2022/04/25 05:22:39;;;;;;;60.95;35.15;;;7.50;99.90;;;;;;5013049;28;20081;-75
2022/04/25 05:25:06;;;;;;;66.70;36.70;;;7.70;99.90;;;;;;4994635;28;20072;-77
2022/04/25 05:27:34;;;;;;;61.15;35.50;;;7.70;99.90;;;;;;5015890;28;20077;-75
2022/04/25 05:30:01;;;;;;;77.28;39.38;;;7.70;99.90;;;;;;5018151;28;20535;-76
2022/04/25 05:32:27;;;;;;;70.95;38.88;;;7.70;99.90;;;;;;5012631;28;20050;-76
2022/04/25 05:34:54;;;;;;;64.63;36.67;;;7.70;99.90;;;;;;5017577;28;20046;-76
2022/04/25 05:37:21;;;;;;;84.47;40.85;;;7.70;99.90;;;;;;5016157;28;20041;-76
2022/04/25 05:39:48;;;;;;;75.10;39.35;;;7.60;99.90;;;;;;5002390;28;20046;-76
2022/04/25 05:42:15;;;;;;;70.97;39.45;;;7.70;99.90;;;;;;5006750;28;20046;-77
2022/04/25 05:44:41;;;;;;;73.32;38.63;;;7.80;99.90;;;;;;5018126;28;20096;-76
2022/04/25 05:47:08;;;;;;;66.35;34.60;;;7.70;99.90;;;;;;5018545;28;20104;-75
2022/04/25 05:52:20;;;;;;;63.85;36.05;;;7.50;99.90;;;;;;5017959;28;20080;-76
2022/04/25 05:54:47;;;;;;;67.18;35.35;;;7.40;99.90;;;;;;5001196;28;20049;-75
2022/04/25 05:57:14;;;;;;;62.72;36.22;;;7.30;99.90;;;;;;5008663;28;20601;-76
2022/04/25 05:59:40;;;;;;;70.53;36.95;;;7.30;99.90;;;;;;5012947;28;20101;-75
2022/04/25 06:02:07;;;;;;;73.45;39.03;;;7.20;99.90;;;;;;4970025;28;20056;-78
2022/04/25 06:04:34;;;;;;;76.18;39.35;;;7.00;99.90;;;;;;4980827;28;20062;-75
2022/04/25 06:07:04;;;;;;;70.90;40.25;;;7.10;99.90;;;;;;4993872;28;20077;-76
2022/04/25 06:09:30;;;;;;;71.25;38.22;;;7.30;99.90;;;;;;5017652;28;20054;-77
2022/04/25 06:11:58;;;;;;;69.82;36.67;;;7.20;99.90;;;;;;4990822;28;20117;-76
2022/04/25 06:14:24;;;;;;;76.38;41.85;;;7.10;99.90;;;;;;4998504;28;20112;-76
2022/04/25 06:16:51;;;;;;;69.93;36.58;;;7.20;99.90;;;;;;4999797;28;20042;-78
2022/04/25 06:19:18;;;;;;;81.10;38.72;;;7.10;99.90;;;;;;5008533;28;20201;-76
2022/04/25 06:21:45;;;;;;;81.63;40.97;;;7.10;99.90;;;;;;4997600;28;20046;-76
2022/04/25 06:24:12;;;;;;;78.57;40.10;;;7.10;99.90;;;;;;5001335;28;20042;-77
2022/04/25 06:26:39;;;;;;;69.70;37.90;;;7.20;99.90;;;;;;5017300;28;20694;-77
2022/04/25 06:29:06;;;;;;;71.72;36.85;;;7.20;99.90;;;;;;5017496;28;20045;-77
2022/04/25 06:31:33;;;;;;;80.30;38.92;;;7.10;99.90;;;;;;5008551;28;20050;-76
2022/04/25 06:34:00;;;;;;;78.75;39.75;;;7.20;99.90;;;;;;4996095;28;20048;-77
2022/04/25 06:36:27;;;;;;;85.82;43.38;;;7.20;99.90;;;;;;4980698;28;20164;-76
2022/04/25 06:38:53;;;;;;;76.43;41.47;;;7.20;99.90;;;;;;4997656;28;20050;-75
2022/04/25 06:41:21;;;;;;;81.88;40.65;;;7.20;99.90;;;;;;5004412;28;20129;-76
2022/04/25 06:43:48;;;;;;;88.53;46.15;;;7.20;99.90;;;;;;5002207;28;20108;-76
2022/04/25 06:46:15;;;;;;;86.13;40.78;;;7.20;99.90;;;;;;4985300;28;20050;-77
2022/04/25 06:49:19;;;;;;;80.82;41.45;;;7.10;99.90;;;;;;5001513;28;20062;-76
2022/04/25 06:51:29;;;;;;;79.60;39.60;;;7.10;99.90;;;;;;5016665;28;20057;-77
2022/04/25 06:53:56;;;;;;;69.18;38.38;;;7.00;99.90;;;;;;5017547;28;20049;-76
2022/04/25 06:56:23;;;;;;;86.88;41.65;;;7.00;99.90;;;;;;4997483;28;20041;-76
2022/04/25 06:58:50;;;;;;;81.82;44.60;;;6.90;99.90;;;;;;5020176;28;20131;-76
2022/04/25 07:01:17;;;;;;;85.07;42.72;;;7.00;99.90;;;;;;5006062;28;20481;-77
2022/04/25 07:03:44;;;;;;;78.68;40.78;;;7.10;99.90;;;;;;4988524;28;20049;-76
2022/04/25 07:06:10;;;;;;;74.82;41.58;;;6.90;99.90;;;;;;5005125;28;20440;-76
2022/04/25 07:08:37;;;;;;;82.47;42.25;;;7.00;99.90;;;;;;5004717;28;20100;-77
2022/04/25 07:11:04;;;;;;;72.03;39.63;;;7.00;99.90;;;;;;5007518;28;20046;-76
2022/04/25 07:13:31;;;;;;;84.78;42.60;;;7.10;99.90;;;;;;5007315;28;20058;-77
2022/04/25 07:16:01;;;;;;;78.28;41.42;;;7.20;99.90;;;;;;5005148;28;20157;-77
2022/04/25 07:18:29;;;;;;;82.53;40.95;;;7.10;99.90;;;;;;4988592;28;20512;-76
2022/04/25 07:20:56;;;;;;;76.97;42.17;;;7.10;99.90;;;;;;5003058;28;20046;-79
2022/04/25 07:28:58;;;;;;;82.85;44.58;;;7.40;99.90;;;;;;4987501;28;20076;-78
2022/04/25 07:31:25;;;;;;;72.05;40.45;;;7.40;99.90;;;;;;4998925;28;20066;-77
2022/04/25 07:33:56;;;;;;;73.75;39.63;;;7.30;99.90;;;;;;4989267;28;20115;-78
2022/04/25 07:36:24;;;;;;;72.88;39.22;;;7.40;99.90;;;;;;5019122;28;20311;-77
2022/04/25 07:38:51;;;;;;;73.90;39.90;;;7.40;99.90;;;;;;5003094;28;20054;-78
2022/04/25 07:41:18;;;;;;;66.00;38.90;;;7.60;99.90;;;;;;5009551;28;20056;-77
2022/04/25 07:43:45;;;;;;;70.97;40.50;;;7.70;99.90;;;;;;5017535;28;20139;-78
2022/04/25 07:46:15;;;;;;;74.03;40.78;;;7.80;99.90;;;;;;5019278;28;20060;-78
2022/04/25 07:48:42;;;;;;;63.33;36.22;;;7.90;99.90;;;;;;5001920;28;20080;-77
2022/04/25 07:51:09;;;;;;;60.45;34.97;;;7.90;99.90;;;;;;5018385;28;20046;-77
2022/04/25 07:53:36;;;;;;;63.55;36.63;;;7.90;99.90;;;;;;5017645;28;20050;-77
2022/04/25 07:56:03;;;;;;;63.95;35.13;;;8.00;99.90;;;;;;4981174;28;20520;-77
2022/04/25 07:58:30;;;;;;;55.33;33.28;;;8.00;99.90;;;;;;5013598;28;20042;-78
2022/04/25 08:00:57;;;;;;;50.95;33.03;;;7.90;99.90;;;;;;5001182;28;20086;-77
2022/04/25 08:03:26;;;;;;;47.25;30.23;;;7.90;99.90;;;;;;5019197;28;20731;-76
2022/04/25 08:05:53;;;;;;;43.70;29.90;;;7.90;99.90;;;;;;5018403;28;20046;-77
2022/04/25 08:08:20;;;;;;;50.80;31.90;;;8.00;99.90;;;;;;5001428;28;20053;-76
2022/04/25 08:10:46;;;;;;;47.70;30.13;;;8.10;99.90;;;;;;5014382;28;20049;-76
2022/04/25 08:18:44;;;;;;;43.13;28.85;;;8.50;99.90;;;;;;4990642;28;20452;-77
2022/04/25 08:21:11;;;;;;;41.70;28.00;;;8.50;99.90;;;;;;5001039;28;20133;-77
2022/04/25 08:23:40;;;;;;;47.30;31.83;;;8.50;99.90;;;;;;5016454;28;20531;-77
2022/04/25 08:26:07;;;;;;;50.25;32.28;;;8.50;99.90;;;;;;5012739;28;20111;-76
2022/04/25 08:28:35;;;;;;;44.22;27.25;;;8.50;99.90;;;;;;4997965;28;20054;-77
2022/04/25 08:31:22;;;;;;;48.67;31.08;;;8.70;99.90;;;;;;4994129;28;20526;-77
2022/04/25 08:33:49;;;;;;;53.35;31.80;;;8.70;99.90;;;;;;5017951;28;20050;-77
2022/04/25 08:36:16;;;;;;;46.50;30.45;;;8.80;99.90;;;;;;5013894;28;20075;-77
2022/04/25 08:38:43;;;;;;;46.45;30.23;;;8.80;99.90;;;;;;5003670;28;20156;-76
2022/04/25 08:41:12;;;;;;;38.08;26.63;;;8.80;99.90;;;;;;5012729;28;20592;-77
2022/04/25 08:43:41;;;;;;;38.08;29.05;;;8.90;99.90;;;;;;5012739;28;20061;-77
2022/04/25 08:46:09;;;;;;;47.70;28.98;;;8.90;99.90;;;;;;5017818;28;20050;-78
2022/04/25 08:48:38;;;;;;;40.13;27.70;;;8.90;99.90;;;;;;5000663;28;20050;-78
2022/04/25 08:51:05;;;;;;;37.95;25.80;;;8.90;99.90;;;;;;5000773;28;20061;-78
2022/04/25 08:53:34;;;;;;;40.40;27.77;;;8.80;99.90;;;;;;5017932;28;20077;-78
2022/04/25 08:56:04;;;;;;;36.75;27.70;;;8.90;99.90;;;;;;5009052;28;20054;-77
2022/04/25 08:58:31;;;;;;;40.88;29.45;;;8.90;99.90;;;;;;5005672;28;20050;-77
2022/04/25 09:00:58;;;;;;;43.13;30.77;;;8.90;99.90;;;;;;5004189;28;20509;-75
2022/04/25 09:03:25;;;;;;;38.17;27.30;;;8.90;99.90;;;;;;5021307;28;20119;-76
2022/04/25 09:05:52;;;;;;;42.83;29.00;;;9.00;99.90;;;;;;5004005;28;20046;-76
2022/04/25 09:08:19;;;;;;;40.90;27.48;;;9.00;99.90;;;;;;5019670;28;20137;-75
2022/04/25 09:10:46;;;;;;;41.13;29.15;;;9.10;99.90;;;;;;5011908;28;20409;-76
2022/04/25 09:13:13;;;;;;;31.38;24.98;;;9.10;99.90;;;;;;5001870;28;20053;-76
2022/04/25 09:15:40;;;;;;;32.78;24.38;;;9.20;99.90;;;;;;4999339;28;20144;-75
2022/04/25 09:18:09;;;;;;;35.33;25.27;;;9.30;99.90;;;;;;5010479;28;20057;-75
2022/04/25 09:20:42;;;;;;;36.92;26.00;;;9.30;99.90;;;;;;5017693;28;20046;-77
2022/04/25 09:23:21;;;;;;;35.38;25.80;;;9.50;99.90;;;;;;5018472;28;20057;-76
2022/04/25 09:26:13;;;;;;;34.03;25.95;;;9.50;99.90;;;;;;5000685;28;20045;-75
2022/04/25 09:28:46;;;;;;;32.05;26.15;;;9.50;99.90;;;;;;5003328;28;20054;-76
2022/04/25 09:31:14;;;;;;;32.70;23.85;;;9.70;99.90;;;;;;5003432;28;20633;-76
2022/04/25 09:33:42;;;;;;;28.50;22.92;;;9.90;99.90;;;;;;4987977;28;20463;-77
2022/04/25 09:36:08;;;;;;;29.25;24.00;;;10.00;99.90;;;;;;5019659;28;20084;-74
2022/04/25 09:38:38;;;;;;;26.20;21.75;;;10.00;99.90;;;;;;5020125;28;20455;-77
2022/04/25 09:41:07;;;;;;;32.47;24.42;;;10.10;99.90;;;;;;4999431;28;20096;-75
2022/04/25 09:43:35;;;;;;;26.92;23.65;;;10.00;99.90;;;;;;5005843;28;20619;-75
2022/04/25 09:46:06;;;;;;;23.40;19.60;;;9.80;99.90;;;;;;5003169;28;20642;-76
2022/04/25 09:48:33;;;;;;;29.92;22.35;;;10.10;99.90;;;;;;5005472;28;20522;-74
2022/04/25 09:51:00;;;;;;;31.85;23.00;;;10.20;99.90;;;;;;5019660;28;20057;-76
2022/04/25 09:53:50;;;;;;;28.80;22.38;;;10.10;99.90;;;;;;5002651;28;20042;-75
2022/04/25 09:56:22;;;;;;;43.03;26.67;;;9.90;99.90;;;;;;5009451;28;20093;-75
2022/04/25 09:59:01;;;;;;;30.55;22.52;;;9.90;99.90;;;;;;5019591;28;20062;-76
2022/04/25 10:01:29;;;;;;;31.05;24.15;;;9.90;99.90;;;;;;5021744;28;20058;-76
2022/04/25 10:03:57;;;;;;;32.08;24.00;;;9.90;99.90;;;;;;5002323;28;20520;-75
2022/04/25 10:06:24;;;;;;;30.95;23.90;;;9.60;99.90;;;;;;5018005;28;20427;-76
2022/04/25 10:08:52;;;;;;;28.77;23.77;;;9.60;99.90;;;;;;4985867;28;20054;-74
2022/04/25 10:11:22;;;;;;;29.13;23.10;;;9.60;99.90;;;;;;5012030;28;20111;-73
2022/04/25 10:13:48;;;;;;;34.72;27.50;;;9.60;99.90;;;;;;5009956;28;20046;-76
2022/04/25 10:16:21;;;;;;;33.00;25.67;;;9.60;99.90;;;;;;5001922;28;20129;-77
2022/04/25 10:18:48;;;;;;;30.92;25.42;;;9.50;99.90;;;;;;5004252;28;20156;-75
2022/04/25 10:21:15;;;;;;;37.22;25.98;;;9.70;99.90;;;;;;5020199;28;20053;-77
2022/04/25 10:23:43;;;;;;;33.85;26.17;;;9.80;99.90;;;;;;5019089;28;20132;-74
2022/04/25 10:26:10;;;;;;;35.65;26.30;;;9.80;99.90;;;;;;5017612;28;20108;-77
2022/04/25 10:28:45;;;;;;;32.10;26.48;;;9.70;99.90;;;;;;5021148;28;20085;-76
2022/04/25 10:31:18;;;;;;;32.63;27.08;;;9.70;99.90;;;;;;5014565;28;20683;-76
2022/04/25 10:33:49;;;;;;;32.10;27.10;;;9.60;99.90;;;;;;5009895;28;20042;-75
2022/04/25 10:36:38;;;;;;;32.45;27.25;;;9.70;99.90;;;;;;4996535;28;20066;-76
2022/04/25 10:39:18;;;;;;;33.28;28.35;;;9.50;99.90;;;;;;5008664;28;20068;-76
2022/04/25 10:44:43;;;;;;;39.92;28.48;;;9.70;99.90;;;;;;5005868;28;20060;-76
2022/04/25 10:47:30;;;;;;;33.95;27.73;;;9.80;99.90;;;;;;5006649;28;20054;-78
2022/04/25 10:49:57;;;;;;;31.85;27.30;;;9.70;99.90;;;;;;4998540;28;20114;-78
2022/04/25 10:52:54;;;;;;;32.78;27.13;;;9.70;99.90;;;;;;4999811;28;20116;-75
2022/04/25 10:55:34;;;;;;;34.67;27.90;;;9.60;99.90;;;;;;4981403;28;20046;-77
2022/04/25 10:58:04;;;;;;;36.60;28.88;;;9.60;99.90;;;;;;4980738;28;20058;-78
2022/04/25 11:00:37;;;;;;;43.13;30.48;;;9.60;99.90;;;;;;4992746;28;20069;-76
2022/04/25 11:03:09;;;;;;;40.30;29.17;;;9.60;99.90;;;;;;4979133;28;20378;-78
2022/04/25 11:05:38;;;;;;;40.78;29.27;;;9.40;99.90;;;;;;4978885;28;20053;-78
2022/04/25 11:08:20;;;;;;;39.50;29.35;;;9.30;99.90;;;;;;4980319;28;20081;-76
2022/04/25 11:10:57;;;;;;;35.38;26.60;;;9.40;99.90;;;;;;4977389;28;20054;-75
2022/04/25 11:13:28;;;;;;;34.47;27.35;;;9.40;99.90;;;;;;4985607;28;20081;-78
2022/04/25 11:16:15;;;;;;;39.80;27.05;;;9.40;99.90;;;;;;4991655;28;21658;-79
2022/04/25 11:18:42;;;;;;;30.10;24.05;;;9.30;99.90;;;;;;4996726;28;20051;-75
2022/04/25 11:21:14;;;;;;;37.60;29.02;;;9.20;99.90;;;;;;4998794;28;20118;-77
2022/04/25 11:23:44;;;;;;;35.65;25.73;;;9.20;99.90;;;;;;5001713;28;20198;-77
2022/04/25 11:26:21;;;;;;;39.33;27.63;;;9.20;99.90;;;;;;5004996;28;20153;-77
2022/04/25 11:28:54;;;;;;;32.00;24.08;;;9.20;99.90;;;;;;4999106;28;20073;-76
2022/04/25 11:31:28;;;;;;;34.70;24.40;;;9.20;99.90;;;;;;4987842;28;20046;-75
2022/04/25 11:33:57;;;;;;;30.67;23.35;;;9.20;99.90;;;;;;4989287;28;20049;-76
2022/04/25 11:36:24;;;;;;;33.72;24.15;;;9.30;99.90;;;;;;5003618;28;20050;-75
2022/04/25 11:41:39;;;;;;;29.95;21.80;;;9.40;99.90;;;;;;4995525;28;20108;-76
2022/04/25 11:44:06;;;;;;;23.25;18.73;;;9.20;99.90;;;;;;5004875;28;20048;-75
2022/04/25 11:46:35;;;;;;;29.27;20.52;;;9.30;99.90;;;;;;4989559;28;20176;-76
2022/04/25 11:49:04;;;;;;;26.80;22.83;;;9.30;99.90;;;;;;5005151;28;20750;-76
2022/04/25 11:51:35;;;;;;;25.50;20.77;;;9.50;99.90;;;;;;5004109;28;20045;-75
2022/04/25 11:54:05;;;;;;;28.00;20.20;;;9.60;99.90;;;;;;5002237;28;20141;-75
2022/04/25 11:56:34;;;;;;;22.45;18.73;;;9.70;99.90;;;;;;4985159;28;20046;-75
2022/04/25 11:59:08;;;;;;;36.50;29.02;;;9.70;99.90;;;;;;5003800;28;20188;-75
2022/04/25 12:01:43;;;;;;;27.65;24.35;;;9.90;99.90;;;;;;4992733;28;20563;-76
2022/04/25 12:04:16;;;;;;;24.75;21.98;;;10.20;99.90;;;;;;4984430;28;20057;-76
2022/04/25 12:07:00;;;;;;;27.30;24.48;;;10.20;99.90;;;;;;5007496;28;20046;-75
2022/04/25 12:18:26;;;;;;;23.60;21.30;;;10.40;99.90;;;;;;4964900;28;20046;-76
2022/04/25 12:21:12;;;;;;;35.50;32.05;;;10.60;99.90;;;;;;4991506;28;20049;-76
2022/04/25 12:23:54;;;;;;;21.92;19.63;;;10.40;99.90;;;;;;5000949;28;20053;-77
2022/04/25 12:26:29;;;;;;;23.23;20.73;;;10.40;99.90;;;;;;5019982;28;20266;-77
2022/04/25 12:29:08;;;;;;;30.60;25.17;;;10.40;99.90;;;;;;5031498;28;20343;-77
2022/04/25 12:31:40;;;;;;;27.33;24.52;;;10.30;99.90;;;;;;5003325;28;20119;-78
2022/04/25 12:34:08;;;;;;;30.52;27.08;;;10.20;99.90;;;;;;5015115;28;20117;-78
2022/04/25 12:36:37;;;;;;;30.50;26.05;;;10.20;99.90;;;;;;5017410;28;20045;-78
2022/04/25 12:39:10;;;;;;;22.20;19.60;;;10.30;99.90;;;;;;5002110;28;20046;-78
2022/04/25 12:41:39;;;;;;;22.30;20.10;;;10.30;99.90;;;;;;5012022;28;20410;-77
2022/04/25 12:44:13;;;;;;;25.33;22.65;;;10.10;99.90;;;;;;5001786;28;20053;-78
2022/04/25 12:46:40;;;;;;;17.20;15.07;;;10.00;99.90;;;;;;5019904;28;20054;-78
2022/04/25 12:49:13;;;;;;;16.55;15.07;;;10.20;99.90;;;;;;5020082;28;20244;-77
2022/04/25 12:51:52;;;;;;;19.13;17.40;;;10.00;99.90;;;;;;5019701;28;20054;-78
2022/04/25 12:54:24;;;;;;;20.40;18.50;;;10.10;99.90;;;;;;5019016;28;20045;-77
2022/04/25 12:57:15;;;;;;;14.43;13.50;;;10.00;99.90;;;;;;4995196;28;20152;-77
2022/04/25 12:59:45;;;;;;;14.32;13.13;;;10.30;99.90;;;;;;4997215;28;20209;-77
2022/04/25 13:02:17;;;;;;;15.65;14.65;;;10.30;99.90;;;;;;4997141;28;20111;-78
2022/04/25 13:04:54;;;;;;;16.55;15.32;;;10.20;99.90;;;;;;4998072;28;20053;-77
2022/04/25 13:07:23;;;;;;;18.67;17.38;;;10.20;99.90;;;;;;4996503;28;20145;-78
2022/04/25 13:09:56;;;;;;;18.42;17.13;;;10.00;99.90;;;;;;5003005;28;20670;-76
2022/04/25 13:12:47;;;;;;;16.60;15.32;;;10.10;99.90;;;;;;5002210;28;20631;-77
2022/04/25 13:15:18;;;;;;;16.55;15.02;;;10.40;99.90;;;;;;5005413;28;20053;-78
2022/04/25 13:17:48;;;;;;;16.20;15.10;;;10.50;99.90;;;;;;4988770;28;20054;-78
2022/04/25 13:20:17;;;;;;;13.68;12.65;;;10.50;99.90;;;;;;5004126;28;20050;-78